Informes de METARS cercanos

 

LEAL - Alicante/El Alte, Spain
Distance from station: SSE 60km
Actualización: 19/08/2019 12:30
Few Clouds
Few Clouds
 Viento del E
Viento: E 19 km/h
Temperatura: 29°C
Heat Index: 32°C
Rocío: 23°C
Humedad: 70%
Barómetro: 1014 hPa
Clouds: Few Clouds
Visibility: 10 km
Cloud details: Few Clouds 427 m
2019/08/19 10:30 LEAL 191030Z 10010KT 060V140 9999 FEW014 29/23 Q1014 NOSIG
LEVC - Valencia (civ/Mi, Spain
Distance from station: NNE 84km
Actualización: 19/08/2019 12:30
Few Clouds
Few Clouds
 Viento del ENE
Viento: ENE 20 km/h
Temperatura: 30°C
Heat Index: 33°C
Rocío: 21°C
Humedad: 59%
Barómetro: 1015 hPa
Clouds: Few Clouds
Visibility: 10 km
Cloud details: Few Clouds 610 m
2019/08/19 10:30 LEVC 191030Z 07011KT 020V110 9999 FEW020 30/21 Q1015 NOSIG
 
LEAB - Albacete (civ/Mi, Spain
Distance from station: O 95km
Actualización: 19/08/2019 12:00
Despejado
Despejado
 Viento del varies
Viento: varies 7 km/h
Temperatura: 29°C
Rocío: 9°C
Humedad: 29%
Barómetro: 1018 hPa
Resumen: Despejado
Visibility: greater than 10 km
2019/08/19 10:00 LEAB 191000Z VRB04KT CAVOK 29/09 Q1018 NOSIG
LERI - Alcantarilla(Sp-, Spain
Distance from station: SSO 100km
Actualización: 19/08/2019 12:00
Despejado
Despejado
 Viento del E
Viento: E 13 km/h
Temperatura: 33°C
Rocío: 13°C
Humedad: 30%
Barómetro: 1014 hPa
Resumen: Despejado
Visibility: greater than 10 km
2019/08/19 10:00 LERI 191000Z 08007KT 030V130 CAVOK 33/13 Q1014 NOSIG
 
LELC - San Javier(Mil/C, Spain
Distance from station: S 113km
Actualización: 19/08/2019 12:30
Parcialmente nuboso
Parcialmente nuboso
 Viento del E
Viento: E 17 km/h
Temperatura: 29°C
Heat Index: 32°C
Rocío: 23°C
Humedad: 70%
Barómetro: 1014 hPa
Clouds: Parcialmente nuboso
Visibility: 9 km
2019/08/19 10:30 LELC 191030Z 08009KT 050V120 9000 NSC 29/23 Q1014 NOSIG
LEIB - Ibiza/Es Codola, Spain
Distance from station: E 186km
Actualización: 19/08/2019 12:30
Few Clouds
Few Clouds
 Viento del ESE
Viento: ESE 13 km/h
Temperatura: 29°C
Heat Index: 32°C
Rocío: 23°C
Humedad: 70%
Barómetro: 1014 hPa
Clouds: Few Clouds
Visibility: 10 km
Cloud details: Few Clouds 518 m
2019/08/19 10:30 LEIB 191030Z 11007KT 060V160 9999 FEW017 29/23 Q1014 NOSIG
 
LEAM - Almeria Airport, Spain
Distance from station: SSO 256km
Actualización: 19/08/2019 12:30
Despejado
Despejado
 Viento del S
Viento: S 9 km/h
Temperatura: 27°C
Heat Index: 30°C
Rocío: 23°C
Humedad: 79%
Barómetro: 1013 hPa
Resumen: Despejado
Visibility: greater than 10 km
2019/08/19 10:30 LEAM 191030Z 18005KT 120V240 CAVOK 27/23 Q1013
LEMD - Madrid/Barajas, Spain
Distance from station: NO 305km
Actualización: 19/08/2019 12:30
Despejado
Despejado
 Viento del SSO
Viento: SSO 20 km/h
Temperatura: 29°C
Rocío: 12°C
Humedad: 35%
Barómetro: 1016 hPa
Resumen: Despejado
Visibility: greater than 10 km
2019/08/19 10:30 LEMD 191030Z 21011KT 180V240 CAVOK 29/12 Q1016 NOSIG
 
LEPA - Palma De Mallorc, Spain
Distance from station: ENE 313km
Actualización: 19/08/2019 12:30
Despejado
Despejado
 Viento del OSO
Viento: OSO 19 km/h
Temperatura: 31°C
Heat Index: 38°C
Rocío: 25°C
Humedad: 70%
Barómetro: 1015 hPa
Resumen: Despejado
Visibility: greater than 10 km
2019/08/19 10:30 LEPA 191030Z 25010KT 210V280 CAVOK 31/25 Q1015 NOSIG